Have a Safe July 4th! 

Flight Track Log - Related Links

Times and Time Zones

All times are in EDT time to prevent confusion due to time zone crossing. See the EJA930 flight status page for this flight to view local times or setup timezone preferences in your user account.

Time Position Orientation Groundspeed Altitude Reporting Facility
EDT Latitude Longitude Course Direction KTS MPH feet Rate Location/Type
Wed 11:07:42 AM 18.4500 -65.9667 North 180 207 1,900  Level San Juan Center
Wed 11:08:42 AM 18.5167 -65.9667 360° North 230 265 4,600 2,331 Climbing San Juan Center
Wed 11:09:43 AM 18.6000 -65.9667 360° North 270 311 6,600 2,331 Climbing San Juan Center
Wed 11:10:43 AM 18.6667 -65.9667 360° North 280 322 9,300 2,200 Climbing San Juan Center
Wed 11:11:43 AM 18.7500 -65.9667 360° North 310 357 11,000 1,289 Climbing San Juan Center
Wed 11:12:44 AM 18.8500 -66.0000 342° North 360 414 11,900 1,339 Climbing San Juan Center
Wed 11:13:00 AM 19.2763 -65.9667 North  Level FlightAware Approximate
Wed 11:13:44 AM 18.9500 -66.0333 343° North 370 426 13,700  Level San Juan Center
Wed 11:14:44 AM 19.0500 -66.0667 343° North 380 437 14,700 1,041 Climbing San Juan Center
Wed 11:15:45 AM 19.1667 -66.1000 345° North 410 472 15,800 1,091 Climbing San Juan Center
Wed 11:16:45 AM 19.2833 -66.1333 345° North 400 460 16,900 1,100 Climbing San Juan Center
Wed 11:17:45 AM 19.3833 -66.1667 343° North 410 472 18,000 1,041 Climbing San Juan Center
Wed 11:18:46 AM 19.4833 -66.2167 335° Northwest 410 472 19,000 961 Climbing San Juan Center
Wed 11:20:46 AM 19.7167 -66.3000 341° North 430 495 20,900 1,046 Climbing San Juan Center
Wed 11:22:47 AM 19.9500 -66.3833 341° North 430 495 23,200 1,061 Climbing San Juan Center
Wed 11:23:47 AM 20.0667 -66.4167 345° North 440 506 24,100 900 Climbing San Juan Center
Wed 11:24:47 AM 20.1833 -66.4500 345° North 450 518 25,000 1,339 Climbing San Juan Center
Wed 11:25:48 AM 20.3000 -66.5000 338° Northwest 460 529 26,800 1,736 Climbing San Juan Center
Wed 11:26:48 AM 20.4333 -66.5333 347° North 460 529 28,500 1,750 Climbing San Juan Center
Wed 11:27:48 AM 20.5500 -66.5833 338° Northwest 440 506 30,300 1,587 Climbing San Juan Center
Wed 11:28:49 AM 20.6667 -66.6333 338° Northwest 460 529 31,700 1,388 Climbing San Juan Center
Wed 11:29:49 AM 20.8000 -66.6667 347° North 470 541 33,100 1,150 Climbing San Juan Center
Wed 11:30:49 AM 20.9000 -66.7167 335° Northwest 470 541 34,000 1,488 Climbing San Juan Center
Wed 11:31:50 AM 21.0500 -66.7667 343° North 480 552 36,100 2,132 Climbing San Juan Center
Wed 11:32:50 AM 21.1500 -66.8000 343° North 470 541 38,300 2,100 Climbing San Juan Center
Wed 11:33:50 AM 21.2833 -66.8500 341° North 460 529 40,300 1,438 Climbing San Juan Center
Wed 11:34:51 AM 21.4000 -66.8833 345° North 460 529 41,200 893 Climbing San Juan Center
Wed 11:35:51 AM 21.5167 -66.9333 338° Northwest 460 529 42,100 900 Climbing San Juan Center
Wed 11:36:51 AM 21.6500 -66.9667 347° North 470 541 43,000 245 Climbing San Juan Center
Wed 11:38:00 AM 21.8040 -66.9910 338° Northwest  Level Estimated
Wed 11:39:31 AM 21.7667 -67.0167 329° Northwest 644 741 43,000  Level New York Oceanic (ODAPS)
Wed 11:42:08 AM 22.2333 -67.3167 349° North 515 593 43,000  Level New York Oceanic (ODAPS)
Wed 11:45:00 AM 22.9646 -67.4666 349° North 644 741 43,000  Level FlightAware Transoceanic
Wed 11:46:00 AM 23.1109 -67.4968 349° North 644 741 43,000  Level FlightAware Transoceanic
Wed 11:47:00 AM 23.2571 -67.5270 349° North 644 741 43,000  Level FlightAware Transoceanic
Wed 11:48:00 AM 23.3741 -67.5512 349° North 515 593 43,000  Level FlightAware Transoceanic
Wed 11:49:00 AM 23.5167 -67.5808 349° North 515 593 43,000  Level FlightAware Transoceanic
Wed 11:50:00 AM 23.6592 -67.6105 349° North 515 593 43,000  Level FlightAware Transoceanic
Wed 11:51:00 AM 23.8018 -67.6402 349° North 515 593 43,000  Level FlightAware Transoceanic
Wed 11:52:00 AM 23.9443 -67.6700 349° North 515 593 43,000  Level FlightAware Transoceanic
Wed 11:53:00 AM 24.0869 -67.6999 349° North 515 593 43,000  Level FlightAware Transoceanic
Wed 11:54:00 AM 24.2294 -67.7298 349° North 515 593 43,000  Level FlightAware Transoceanic
Wed 11:55:00 AM 24.3720 -67.7598 349° North 515 593 43,000  Level FlightAware Transoceanic
Wed 11:56:00 AM 24.5145 -67.7899 349° North 515 593 43,000  Level FlightAware Transoceanic
Wed 11:57:00 AM 24.6570 -67.8200 349° North 515 593 43,000  Level FlightAware Transoceanic
Wed 11:58:00 AM 24.7995 -67.8502 349° North 515 593 43,000  Level FlightAware Transoceanic
Wed 11:59:00 AM 24.9421 -67.8805 349° North 515 593 43,000  Level FlightAware Transoceanic
Wed 12:00:00 PM 25.0846 -67.9108 349° North 515 593 43,000  Level FlightAware Transoceanic
Wed 12:01:00 PM 25.2271 -67.9412 349° North 515 593 43,000  Level FlightAware Transoceanic
Wed 12:02:00 PM 25.3696 -67.9717 349° North 515 593 43,000  Level FlightAware Transoceanic
Wed 12:03:00 PM 25.5121 -68.0023 349° North 515 593 43,000  Level FlightAware Transoceanic
Wed 12:04:00 PM 25.6545 -68.0329 349° North 515 593 43,000  Level FlightAware Transoceanic
Wed 12:05:00 PM 25.7970 -68.0636 349° North 515 593 43,000  Level FlightAware Transoceanic
Wed 12:06:00 PM 25.9395 -68.0944 349° North 515 593 43,000  Level FlightAware Transoceanic
Wed 12:06:06 PM 25.4667 -68.0000 349° North 530 610 43,000  Level New York Oceanic (ODAPS)
Wed 12:07:00 PM 26.0819 -68.1252 349° North 515 593 43,000  Level FlightAware Transoceanic
Wed 12:08:00 PM 26.2244 -68.1561 349° North 515 593 43,000  Level FlightAware Transoceanic
Wed 12:09:00 PM 26.3668 -68.1871 349° North 515 593 43,000  Level FlightAware Transoceanic
Wed 12:10:00 PM 26.5093 -68.2182 349° North 515 593 43,000  Level FlightAware Transoceanic
Wed 12:11:00 PM 26.6517 -68.2494 349° North 515 593 43,000  Level FlightAware Transoceanic
Wed 12:12:00 PM 26.6277 -68.2481 349° North 530 610 43,000  Level FlightAware Transoceanic
Wed 12:13:00 PM 26.7728 -68.2795 349° North 530 610 43,000  Level FlightAware Transoceanic
Wed 12:14:00 PM 26.9179 -68.3109 349° North 530 610 43,000  Level FlightAware Transoceanic
Wed 12:15:00 PM 27.0630 -68.3424 349° North 530 610 43,000  Level FlightAware Transoceanic
Wed 12:16:00 PM 27.2080 -68.3740 349° North 530 610 43,000  Level FlightAware Transoceanic
Wed 12:17:00 PM 27.3531 -68.4057 349° North 530 610 43,000  Level FlightAware Transoceanic
Wed 12:18:00 PM 27.4982 -68.4375 349° North 530 610 43,000  Level FlightAware Transoceanic
Wed 12:19:00 PM 27.6432 -68.4694 349° North 530 610 43,000  Level FlightAware Transoceanic
Wed 12:20:00 PM 27.7883 -68.5013 349° North 530 610 43,000  Level FlightAware Transoceanic
Wed 12:21:00 PM 27.9333 -68.5333 349° North 530 610 43,000  Level FlightAware Transoceanic
Wed 12:22:00 PM 28.0818 -68.5674 349° North 530 610 43,000  Level FlightAware Transoceanic
Wed 12:23:00 PM 28.2302 -68.6015 349° North 530 610 43,000  Level FlightAware Transoceanic
Wed 12:24:00 PM 28.3786 -68.6358 349° North 530 610 43,000  Level FlightAware Transoceanic
Wed 12:24:45 PM 27.9333 -68.5333 349° North 570 656 43,000  Level New York Oceanic (ODAPS)
Wed 12:25:00 PM 28.5270 -68.6701 348° North 530 610 43,000  Level FlightAware Transoceanic
Wed 12:26:00 PM 28.6753 -68.7046 348° North 530 610 43,000  Level FlightAware Transoceanic
Wed 12:27:00 PM 28.8237 -68.7391 348° North 530 610 43,000  Level FlightAware Transoceanic
Wed 12:28:00 PM 28.9721 -68.7737 348° North 530 610 43,000  Level FlightAware Transoceanic
Wed 12:29:00 PM 29.1204 -68.8085 348° North 530 610 43,000  Level FlightAware Transoceanic
Wed 12:30:00 PM 29.2688 -68.8433 348° North 530 610 43,000  Level FlightAware Transoceanic
Wed 12:31:00 PM 29.4952 -68.8967 348° North 570 656 43,000  Level FlightAware Transoceanic
Wed 12:32:00 PM 29.6513 -68.9336 348° North 570 656 43,000  Level FlightAware Transoceanic
Wed 12:33:00 PM 29.8074 -68.9706 348° North 570 656 43,000  Level FlightAware Transoceanic
Wed 12:34:00 PM 29.9636 -69.0078 348° North 570 656 43,000  Level FlightAware Transoceanic
Wed 12:35:00 PM 30.1197 -69.0451 348° North 570 656 43,000  Level FlightAware Transoceanic
Wed 12:36:00 PM 30.2757 -69.0825 348° North 570 656 43,000  Level FlightAware Transoceanic
Wed 12:37:00 PM 30.4318 -69.1200 348° North 570 656 43,000  Level FlightAware Transoceanic
Wed 12:38:00 PM 30.5879 -69.1577 348° North 570 656 43,000  Level FlightAware Transoceanic
Wed 12:39:00 PM 30.7439 -69.1954 348° North 570 656 43,000  Level FlightAware Transoceanic
Wed 12:40:00 PM 30.9000 -69.2333 349° North 570 656 43,000  Level FlightAware Transoceanic
Wed 12:41:00 PM 31.0484 -69.2685 348° North 570 656 43,000  Level FlightAware Transoceanic
Wed 12:42:00 PM 31.1969 -69.3039 348° North 570 656 43,000  Level FlightAware Transoceanic
Wed 12:43:00 PM 31.3453 -69.3393 348° North 570 656 43,000  Level FlightAware Transoceanic
Wed 12:43:40 PM 30.9000 -69.2333 349° North 550 633 43,000  Level New York Oceanic (ODAPS)
Wed 12:44:00 PM 31.4937 -69.3748 348° North 570 656 43,000  Level FlightAware Transoceanic
Wed 12:45:00 PM 31.6421 -69.4105 348° North 570 656 43,000  Level FlightAware Transoceanic
Wed 12:46:00 PM 31.7905 -69.4463 348° North 570 656 43,000  Level FlightAware Transoceanic
Wed 12:47:00 PM 31.9389 -69.4821 348° North 570 656 43,000  Level FlightAware Transoceanic
Wed 12:48:00 PM 32.0872 -69.5181 348° North 570 656 43,000  Level FlightAware Transoceanic
Wed 12:49:00 PM 32.0872 -69.5181 348° North 550 633 43,000  Level FlightAware Transoceanic
Wed 12:50:00 PM 32.2356 -69.5543 348° North 550 633 43,000  Level FlightAware Transoceanic
Wed 12:51:00 PM 32.3839 -69.5905 348° North 550 633 43,000  Level FlightAware Transoceanic
Wed 12:52:00 PM 32.5322 -69.6268 348° North 550 633 43,000  Level FlightAware Transoceanic
Wed 12:53:00 PM 32.6806 -69.6633 348° North 550 633 43,000  Level FlightAware Transoceanic
Wed 12:54:00 PM 32.8289 -69.6999 348° North 550 633 43,000  Level FlightAware Transoceanic
Wed 12:55:00 PM 32.9772 -69.7366 348° North 550 633 43,000  Level FlightAware Transoceanic
Wed 12:56:00 PM 33.1255 -69.7735 348° North 550 633 43,000  Level FlightAware Transoceanic
Wed 12:57:00 PM 33.2738 -69.8104 348° North 550 633 43,000  Level FlightAware Transoceanic
Wed 12:58:00 PM 33.4221 -69.8475 348° North 550 633 43,000  Level FlightAware Transoceanic
Wed 12:59:00 PM 33.5703 -69.8847 348° North 550 633 43,000  Level FlightAware Transoceanic
Wed 01:00:00 PM 33.7186 -69.9221 348° North 550 633 43,000  Level FlightAware Transoceanic
Wed 01:01:00 PM 33.8668 -69.9596 348° North 550 633 43,000  Level FlightAware Transoceanic
Wed 01:02:00 PM 34.0150 -69.9972 348° North 550 633 43,000  Level FlightAware Transoceanic
Wed 01:03:00 PM 34.1632 -70.0349 348° North 550 633 43,000  Level FlightAware Transoceanic
Wed 01:04:00 PM 34.3114 -70.0728 348° North 550 633 43,000  Level FlightAware Transoceanic
Wed 01:05:00 PM 34.4596 -70.1108 348° North 550 633 43,000  Level FlightAware Transoceanic
Wed 01:06:00 PM 34.6078 -70.1489 348° North 550 633 43,000  Level FlightAware Transoceanic
Wed 01:06:39 PM 33.3000 -69.8167 348° North 531 611 43,000  Level New York Oceanic (ODAPS)
Wed 01:07:00 PM 34.7560 -70.1872 348° North 550 633 43,000  Level FlightAware Transoceanic
Wed 01:08:00 PM 34.9041 -70.2256 348° North 550 633 43,000  Level FlightAware Transoceanic
Wed 01:09:00 PM 35.0523 -70.2642 348° North 550 633 43,000  Level FlightAware Transoceanic
Wed 01:10:00 PM 35.2004 -70.3028 348° North 550 633 43,000  Level FlightAware Transoceanic
Wed 01:11:00 PM 35.3485 -70.3417 348° North 550 633 43,000  Level FlightAware Transoceanic
Wed 01:12:00 PM 35.3625 -70.3452 348° North 531 611 43,000  Level FlightAware Transoceanic
Wed 01:13:00 PM 35.5097 -70.3839 348° North 531 611 43,000  Level FlightAware Transoceanic
Wed 01:14:00 PM 35.6570 -70.4229 348° North 531 611 43,000  Level FlightAware Transoceanic
Wed 01:15:00 PM 35.8042 -70.4619 348° North 531 611 43,000  Level FlightAware Transoceanic
Wed 01:16:00 PM 35.9514 -70.5011 348° North 531 611 43,000  Level FlightAware Transoceanic
Wed 01:17:00 PM 36.0985 -70.5405 348° North 531 611 43,000  Level FlightAware Transoceanic
Wed 01:17:32 PM 35.7667 -70.4500 348° North 513 590 43,000  Level New York Oceanic (ODAPS)
Wed 01:18:00 PM 36.2457 -70.5800 348° North 531 611 43,000  Level FlightAware Transoceanic
Wed 01:19:00 PM 36.3929 -70.6196 348° North 531 611 43,000  Level FlightAware Transoceanic
Wed 01:20:00 PM 36.5400 -70.6594 348° North 531 611 43,000  Level FlightAware Transoceanic
Wed 01:21:00 PM 36.6871 -70.6993 348° North 531 611 43,000  Level FlightAware Transoceanic
Wed 01:22:00 PM 36.8343 -70.7394 348° North 531 611 43,000  Level FlightAware Transoceanic
Wed 01:23:00 PM 36.8812 -70.7514 348° North 513 590 43,000  Level FlightAware Transoceanic
Wed 01:24:00 PM 37.0205 -70.7897 348° North 513 590 43,000  Level FlightAware Transoceanic
Wed 01:25:00 PM 37.1598 -70.8282 348° North 513 590 43,000  Level FlightAware Transoceanic
Wed 01:26:00 PM 37.2990 -70.8667 348° North 513 590 43,000  Level FlightAware Transoceanic
Wed 01:27:00 PM 37.4382 -70.9055 348° North 513 590 43,000  Level FlightAware Transoceanic
Wed 01:28:00 PM 37.5775 -70.9443 348° North 513 590 43,000  Level FlightAware Transoceanic
Wed 01:28:04 PM 37.4997 -70.9317 324° Northwest 504 580 43,000  Level New York Center
Wed 01:29:00 PM 37.7167 -70.9833 324° Northwest 513 590 43,000  Level FlightAware Transoceanic
Wed 01:29:04 PM 37.6394 -70.9689 348° North 511 588 43,000  Level New York Center
Wed 01:30:00 PM 37.8300 -71.0862 324° Northwest 513 590 43,000  Level FlightAware Transoceanic
Wed 01:30:05 PM 37.7792 -71.0008 350° North 505 581 43,000  Level New York Center
Wed 01:31:03 PM 37.9144 -71.0383 348° North 512 589 43,000  Level New York Center
Wed 01:32:04 PM 38.0583 -71.0678 351° North 505 581 43,000  Level New York Center
Wed 01:33:05 PM 38.1939 -71.1056 348° North 505 581 43,000  Level New York Center
Wed 01:34:06 PM 38.3272 -71.1433 347° North 503 579 43,000  Level New York Center
Wed 01:35:03 PM 38.4667 -71.1786 349° North 503 579 43,000  Level New York Center
Wed 01:36:03 PM 38.6125 -71.2086 351° North 509 586 43,000  Level New York Center
Wed 01:37:04 PM 38.7397 -71.2494 346° North 503 579 43,000  Level New York Center
Wed 01:38:04 PM 38.8814 -71.2853 349° North 508 585 43,000  Level New York Center
Wed 01:39:04 PM 39.0292 -71.3236 349° North 514 592 43,000  Level New York Center
Wed 01:40:05 PM 39.1686 -71.3569 350° North 509 586 43,000  Level New York Center
Wed 01:41:05 PM 39.2956 -71.3958 347° North 496 571 43,000  Level New York Center
Wed 01:42:04 PM 39.4350 -71.4319 349° North 500 575 43,000  Level New York Center
Wed 01:43:05 PM 39.5911 -71.4739 348° North 525 604 43,000  Level New York Center
Wed 01:44:05 PM 39.7328 -71.5106 349° North 525 604 43,000 -51 Level New York Center
Wed 01:45:03 PM 39.8700 -71.5444 349° North 520 598 42,900 -1,043 Descending New York Center
Wed 01:47:32 PM 40.1947 -71.6253 349° North 499 574 39,400 -1,435 Descending Boston Center
Wed 01:48:32 PM 40.3325 -71.6644 348° North 504 580 37,900 -2,050 Descending Boston Center
Wed 01:49:32 PM 40.4767 -71.7036 348° North 510 587 35,300 -2,650 Descending Boston Center
Wed 01:50:32 PM 40.6164 -71.7403 349° North 505 581 32,600 -2,800 Descending Boston Center
Wed 01:51:32 PM 40.7667 -71.7550 356° North 518 596 29,700 -2,850 Descending Boston Center
Wed 01:52:32 PM 40.9142 -71.7067 14° North 533 613 26,900 -2,900 Descending Boston Center
Wed 01:53:32 PM 41.0658 -71.6500 16° North 525 604 23,900 -2,700 Descending Boston Center
Wed 01:54:32 PM 41.1864 -71.6100 14° North 495 570 21,500 -1,450 Descending Boston Center
Wed 01:55:32 PM 41.3117 -71.6083 North 412 474 21,000 -350 Descending Boston Center
Wed 01:56:32 PM 41.4178 -71.6181 356° North 400 460 20,800 -750 Descending Boston Center
Wed 01:57:32 PM 41.5264 -71.6306 355° North 394 453 19,500 -1,364 Descending Boston Center
Wed 01:58:44 PM 41.6242 -71.6208 North 380 437 17,800 -2,136 Descending Boston Center
Wed 01:59:44 PM 41.7172 -71.5083 42° Northeast 355 409 14,800 -2,600 Descending Boston Center
Wed 02:00:44 PM 41.7539 -71.4106 63° Northeast 333 383 12,600 -1,850 Descending Boston Center
Wed 02:01:44 PM 41.8067 -71.2619 64° Northeast 349 402 11,100 -850 Descending Boston Center
Wed 02:02:44 PM 41.8531 -71.1331 64° Northeast 354 407 10,900 -973 Descending Boston Center
Wed 02:03:35 PM 41.9000 -71.0333 58° Northeast 334 384 9,300 -1,755 Descending KA90
Wed 02:04:30 PM 41.9333 -70.9333 66° East 334 384 7,800 -684 Descending KA90
Wed 02:05:29 PM 41.9833 -70.8333 56° Northeast 318 366 8,000 100 Climbing KA90
Wed 02:06:30 PM 42.0333 -70.7333 56° Northeast 320 368 8,000  Level KA90
Wed 02:07:30 PM 42.0833 -70.6500 51° Northeast 318 366 8,000 -143 Level KA90
Wed 02:08:36 PM 42.1667 -70.6000 24° Northeast 290 334 7,700 -750 Descending KA90
Wed 02:09:30 PM 42.2333 -70.5833 10° North 281 323 6,500 -1,316 Descending KA90
Wed 02:10:30 PM 42.3000 -70.6167 340° North 246 283 5,200 -1,250 Descending KA90
Wed 02:11:30 PM 42.3667 -70.6500 340° North 220 253 4,000 -571 Descending KA90
Wed 02:12:36 PM 42.4167 -70.6667 346° North 185 213 4,000 -149 Level KA90
Wed 02:13:31 PM 42.4000 -70.7167 246° West 170 196 3,700 -626 Descending KA90
Wed 02:14:31 PM 42.4000 -70.7833 270° West 165 190 2,800 -800 Descending KA90
Wed 02:15:31 PM 42.3833 -70.8333 246° West 165 190 2,100 -762 Descending KA90
Wed 02:16:37 PM 42.3833 -70.9000 270° West 157 181 1,200 -750 Descending KA90
Wed 02:17:31 PM 42.3667 -70.9500 246° West 131 151 600 -667 Descending KA90

Login

Don't have an account? Register now (free) for customized features, flight alerts, and more!